Time;durP1;ratioP1;P1;durP2;ratioP2;P2;SDS_P1;SDS_P2;PMS_P1;PMS_P2;Temp;Humidity;BMP_temperature;BMP_pressure;BME280_temperature;BME280_humidity;BME280_pressure;Samples;Min_cycle;Max_cycle;Signal;HPM_P1;HPM_P2
2024/01/24 00:01:38;;;;;;;9.52;2.22;;;11.40;95.00;;;;;;5156445;27;20048;-82
2024/01/24 00:04:04;;;;;;;8.35;1.70;;;11.40;94.90;;;;;;5112122;27;20046;-83
2024/01/24 00:06:30;;;;;;;9.80;2.10;;;11.50;94.90;;;;;;5124954;27;20044;-82
2024/01/24 00:08:56;;;;;;;5.43;2.25;;;11.50;94.80;;;;;;5125312;27;20061;-82
2024/01/24 00:11:21;;;;;;;9.88;2.25;;;11.50;94.80;;;;;;5109349;28;20023;-81
2024/01/24 00:13:47;;;;;;;5.10;1.55;;;11.50;94.80;;;;;;5113010;27;20028;-81
2024/01/24 00:16:12;;;;;;;6.35;2.00;;;11.50;94.70;;;;;;5123392;27;20505;-82
2024/01/24 00:18:38;;;;;;;7.53;1.77;;;12.00;94.80;;;;;;5124144;27;20063;-82
2024/01/24 00:21:04;;;;;;;4.60;1.60;;;11.60;94.60;;;;;;5108158;27;20682;-82
2024/01/24 00:23:29;;;;;;;6.60;2.10;;;11.60;94.60;;;;;;5123138;28;20435;-82
2024/01/24 00:25:55;;;;;;;10.35;2.03;;;11.60;94.50;;;;;;5125323;27;20089;-82
2024/01/24 00:28:26;;;;;;;7.10;2.08;;;11.60;94.50;;;;;;5124643;27;20036;-82
2024/01/24 00:30:52;;;;;;;8.02;1.90;;;11.60;94.40;;;;;;5124878;27;20055;-82
2024/01/24 00:33:17;;;;;;;8.00;1.95;;;11.70;94.40;;;;;;5124267;27;20438;-82
2024/01/24 00:35:43;;;;;;;6.47;1.70;;;11.70;94.30;;;;;;5122579;27;20423;-82
2024/01/24 00:38:09;;;;;;;10.70;2.20;;;11.90;94.30;;;;;;5111495;27;20047;-87
2024/01/24 00:40:34;;;;;;;7.05;1.65;;;11.70;94.10;;;;;;5114463;27;20409;-88
2024/01/24 00:43:01;;;;;;;8.80;1.95;;;11.70;94.10;;;;;;5106192;27;20035;-88
2024/01/24 00:45:26;;;;;;;5.43;1.58;;;12.40;94.30;;;;;;5113215;27;20421;-87
2024/01/24 00:47:52;;;;;;;10.60;1.92;;;11.70;94.00;;;;;;5106246;27;20042;-88
2024/01/24 00:50:18;;;;;;;6.00;1.70;;;11.70;94.00;;;;;;5114623;27;20051;-87
2024/01/24 00:52:43;;;;;;;5.43;1.33;;;11.70;93.90;;;;;;5104559;27;20078;-87
2024/01/24 00:55:09;;;;;;;6.50;1.98;;;11.70;93.90;;;;;;5105795;28;20028;-88
2024/01/24 00:57:35;;;;;;;9.52;1.63;;;11.70;93.90;;;;;;5113196;28;20107;-88
2024/01/24 01:00:00;;;;;;;7.45;1.70;;;11.80;93.90;;;;;;5099537;28;20035;-88
2024/01/24 01:02:26;;;;;;;5.75;1.50;;;11.80;93.80;;;;;;5114279;27;20114;-87
2024/01/24 01:04:52;;;;;;;6.40;1.50;;;11.80;93.80;;;;;;5098661;28;20036;-87
2024/01/24 01:07:17;;;;;;;7.55;1.83;;;11.80;93.80;;;;;;5102748;28;20061;-87
2024/01/24 01:09:43;;;;;;;6.43;1.52;;;11.80;93.70;;;;;;5100455;27;20031;-88
2024/01/24 01:12:08;;;;;;;7.32;2.10;;;11.80;93.70;;;;;;5103854;28;20449;-87
2024/01/24 01:14:34;;;;;;;6.55;1.52;;;11.90;93.70;;;;;;5115301;27;20044;-87
2024/01/24 01:16:59;;;;;;;4.22;1.10;;;12.30;93.80;;;;;;5113587;27;20095;-87
2024/01/24 01:19:25;;;;;;;7.65;1.35;;;11.90;93.70;;;;;;5111688;27;20035;-87
2024/01/24 01:21:51;;;;;;;7.43;1.02;;;12.10;93.70;;;;;;5113505;28;20032;-87
2024/01/24 01:24:16;;;;;;;4.78;1.42;;;11.90;93.70;;;;;;5119909;27;20489;-87
2024/01/24 01:26:42;;;;;;;3.95;1.10;;;12.70;93.90;;;;;;5110582;27;20043;-87
2024/01/24 01:29:07;;;;;;;3.45;1.00;;;12.10;93.70;;;;;;5127055;27;20039;-88
2024/01/24 01:31:33;;;;;;;6.93;1.40;;;12.40;93.70;;;;;;5111211;28;20040;-87
2024/01/24 01:34:00;;;;;;;3.45;0.88;;;11.90;93.80;;;;;;5115226;27;20032;-87
2024/01/24 01:36:26;;;;;;;6.75;1.08;;;11.90;93.60;;;;;;5104450;28;20418;-87
2024/01/24 01:38:52;;;;;;;3.65;0.98;;;12.30;93.70;;;;;;5109944;27;20122;-88
2024/01/24 01:41:18;;;;;;;5.03;1.10;;;12.00;93.50;;;;;;5097118;27;20063;-88
2024/01/24 01:43:44;;;;;;;4.28;0.65;;;12.00;93.50;;;;;;5110509;27;20550;-88
2024/01/24 01:46:21;;;;;;;4.32;1.00;;;12.00;93.50;;;;;;5116361;27;20409;-88
2024/01/24 01:48:49;;;;;;;4.82;1.13;;;12.00;93.50;;;;;;5115784;28;20043;-88
2024/01/24 01:51:16;;;;;;;4.93;1.23;;;12.00;93.50;;;;;;5132182;27;20046;-88
2024/01/24 01:53:44;;;;;;;3.40;0.98;;;12.50;93.60;;;;;;5126807;28;20039;-88
2024/01/24 01:56:12;;;;;;;4.05;1.30;;;12.00;93.50;;;;;;5111319;28;20044;-88
2024/01/24 01:58:39;;;;;;;4.78;2.10;;;12.00;93.50;;;;;;5113082;27;20089;-88
2024/01/24 02:01:06;;;;;;;4.13;1.17;;;12.00;93.50;;;;;;5112975;27;20036;-87
2024/01/24 02:03:32;;;;;;;4.35;0.80;;;12.00;93.40;;;;;;5113560;27;20023;-87
2024/01/24 02:05:59;;;;;;;5.22;1.13;;;12.00;93.40;;;;;;5106474;28;20501;-88
2024/01/24 02:08:24;;;;;;;6.95;1.30;;;12.00;93.40;;;;;;5102661;27;20044;-87
2024/01/24 02:10:50;;;;;;;5.45;1.13;;;12.00;93.40;;;;;;5096156;27;20042;-87
2024/01/24 02:13:15;;;;;;;3.78;1.10;;;12.70;93.50;;;;;;5103747;28;20039;-87
2024/01/24 02:15:41;;;;;;;3.70;1.23;;;12.00;93.20;;;;;;5113545;27;20035;-87
2024/01/24 02:18:07;;;;;;;7.18;1.17;;;12.00;93.10;;;;;;5097220;28;20039;-88
2024/01/24 02:20:33;;;;;;;7.20;1.33;;;12.00;93.10;;;;;;5103444;28;20081;-87
2024/01/24 02:22:59;;;;;;;7.40;1.10;;;12.00;93.00;;;;;;5111722;27;20038;-87
2024/01/24 02:25:24;;;;;;;8.15;1.17;;;12.00;93.00;;;;;;5101735;28;20032;-87
2024/01/24 02:27:50;;;;;;;7.75;1.40;;;11.90;92.90;;;;;;5096357;28;20067;-87
2024/01/24 02:30:16;;;;;;;9.75;1.67;;;11.90;92.90;;;;;;5112288;27;20117;-87
2024/01/24 02:32:41;;;;;;;3.38;0.93;;;11.80;92.90;;;;;;5113637;27;20035;-87
2024/01/24 02:35:07;;;;;;;7.13;1.25;;;11.80;92.90;;;;;;5098629;27;20483;-87
2024/01/24 02:37:33;;;;;;;8.05;1.58;;;11.80;92.90;;;;;;5111995;27;20062;-88
2024/01/24 02:39:59;;;;;;;6.30;1.80;;;11.80;93.00;;;;;;5112189;27;20119;-87
2024/01/24 02:42:24;;;;;;;6.72;1.63;;;11.70;93.00;;;;;;5111477;28;20050;-88
2024/01/24 02:44:50;;;;;;;6.70;1.65;;;12.20;93.20;;;;;;5130529;27;20080;-88
2024/01/24 02:47:18;;;;;;;11.65;1.95;;;11.60;93.10;;;;;;5104325;27;20488;-88
2024/01/24 02:49:44;;;;;;;8.10;2.28;;;11.90;93.20;;;;;;5104134;28;20407;-87
2024/01/24 02:52:10;;;;;;;8.60;1.70;;;11.70;93.20;;;;;;5114505;27;20027;-87
2024/01/24 02:54:37;;;;;;;11.70;2.50;;;11.60;93.20;;;;;;5111493;28;20035;-87
2024/01/24 02:57:03;;;;;;;13.57;2.50;;;12.10;93.30;;;;;;5112087;28;20067;-87
2024/01/24 02:59:29;;;;;;;11.68;2.58;;;11.50;93.10;;;;;;5112097;28;20039;-88
2024/01/24 03:01:54;;;;;;;13.02;3.15;;;11.90;93.20;;;;;;5103115;28;20035;-88
2024/01/24 03:04:20;;;;;;;17.33;3.97;;;11.40;93.00;;;;;;5103619;28;20109;-87
2024/01/24 03:06:45;;;;;;;17.90;2.78;;;11.40;93.00;;;;;;5111517;28;20367;-87
2024/01/24 03:09:11;;;;;;;16.25;2.70;;;11.40;92.90;;;;;;5097070;28;20491;-87
2024/01/24 03:11:37;;;;;;;16.35;3.50;;;11.40;92.80;;;;;;5099591;28;20032;-88
2024/01/24 03:14:03;;;;;;;12.80;3.05;;;11.40;92.80;;;;;;5111446;28;20040;-88
2024/01/24 03:16:29;;;;;;;21.13;3.70;;;11.30;92.70;;;;;;5112279;28;20035;-87
2024/01/24 03:18:54;;;;;;;16.48;3.35;;;11.90;92.80;;;;;;5093931;28;20047;-87
2024/01/24 03:21:20;;;;;;;12.10;3.83;;;11.20;92.60;;;;;;5101814;28;20036;-87
2024/01/24 03:23:46;;;;;;;11.82;2.67;;;11.30;92.60;;;;;;5111889;28;20032;-87
2024/01/24 03:26:15;;;;;;;17.17;3.25;;;11.70;92.70;;;;;;5111426;28;20036;-87
2024/01/24 03:28:41;;;;;;;20.80;3.55;;;11.20;92.50;;;;;;5111348;28;20050;-87
2024/01/24 03:31:06;;;;;;;14.95;3.10;;;11.20;92.50;;;;;;5100882;27;20071;-87
2024/01/24 03:33:32;;;;;;;12.20;3.10;;;11.20;92.50;;;;;;5111035;28;20406;-87
2024/01/24 03:35:57;;;;;;;16.60;3.00;;;11.50;92.50;;;;;;5112278;28;20099;-86
2024/01/24 03:38:23;;;;;;;15.73;3.42;;;11.10;92.40;;;;;;5110408;28;20051;-87
2024/01/24 03:40:49;;;;;;;20.60;3.58;;;11.80;92.70;;;;;;5113667;28;20123;-87
2024/01/24 03:43:14;;;;;;;13.98;3.08;;;11.10;92.30;;;;;;5106346;28;20118;-87
2024/01/24 03:45:40;;;;;;;13.63;3.20;;;11.00;92.20;;;;;;5114674;28;20451;-86
2024/01/24 03:48:06;;;;;;;16.27;3.08;;;11.00;92.20;;;;;;5112184;28;20046;-88
2024/01/24 03:50:33;;;;;;;13.90;3.42;;;11.00;92.20;;;;;;5111740;28;20403;-88
2024/01/24 03:53:03;;;;;;;18.65;4.35;;;11.00;92.10;;;;;;5115098;27;20400;-88
2024/01/24 03:55:29;;;;;;;19.98;4.10;;;11.00;92.00;;;;;;5128614;28;20067;-88
2024/01/24 03:57:55;;;;;;;16.58;3.50;;;10.90;91.90;;;;;;5109119;28;20036;-88
2024/01/24 04:00:21;;;;;;;20.83;3.67;;;10.90;91.80;;;;;;5115440;28;20047;-87
2024/01/24 04:02:46;;;;;;;19.08;4.13;;;11.10;91.80;;;;;;5106357;28;20024;-87
2024/01/24 04:05:12;;;;;;;18.15;4.03;;;11.10;91.80;;;;;;5114926;28;20459;-87
2024/01/24 04:07:37;;;;;;;17.55;3.70;;;10.90;91.60;;;;;;5103894;27;20118;-88
2024/01/24 04:10:03;;;;;;;19.35;3.75;;;10.90;91.50;;;;;;5115508;28;20035;-88
2024/01/24 04:12:30;;;;;;;20.58;3.58;;;10.90;91.50;;;;;;5118682;27;20116;-88
2024/01/24 04:14:55;;;;;;;22.58;5.18;;;10.90;91.50;;;;;;5122944;27;20121;-88
2024/01/24 04:17:21;;;;;;;20.50;4.95;;;10.90;91.50;;;;;;5133177;27;20530;-87
2024/01/24 04:19:47;;;;;;;20.98;4.45;;;10.80;91.40;;;;;;5115270;27;20384;-88
2024/01/24 04:22:13;;;;;;;23.23;4.68;;;10.90;91.30;;;;;;5116316;27;20042;-86
2024/01/24 04:24:38;;;;;;;22.15;4.47;;;10.80;91.20;;;;;;5114884;27;20173;-87
2024/01/24 04:27:04;;;;;;;22.17;4.90;;;10.80;91.20;;;;;;5096974;28;20550;-87
2024/01/24 04:29:29;;;;;;;20.42;3.28;;;10.80;91.10;;;;;;5115689;27;20058;-88
2024/01/24 04:31:55;;;;;;;20.83;6.10;;;10.80;91.00;;;;;;5104209;27;20090;-86
2024/01/24 04:34:21;;;;;;;19.13;3.42;;;10.80;90.90;;;;;;5104826;27;20406;-87
2024/01/24 04:36:46;;;;;;;18.52;4.10;;;10.80;90.80;;;;;;5114666;27;20188;-88
2024/01/24 04:39:12;;;;;;;23.55;4.85;;;10.80;90.80;;;;;;5096699;28;20032;-87
2024/01/24 04:41:38;;;;;;;18.67;4.55;;;10.80;90.80;;;;;;5098843;28;20031;-88
2024/01/24 04:44:04;;;;;;;24.73;5.13;;;10.80;90.70;;;;;;5114221;27;20041;-87
2024/01/24 04:46:30;;;;;;;24.30;5.20;;;11.20;90.80;;;;;;5097947;27;20036;-88
2024/01/24 04:48:56;;;;;;;26.08;5.07;;;11.10;90.70;;;;;;5114980;27;20046;-88
2024/01/24 04:51:22;;;;;;;21.35;5.60;;;10.80;90.40;;;;;;5099592;27;20929;-88
2024/01/24 04:53:48;;;;;;;17.50;4.57;;;10.80;90.30;;;;;;5115140;27;20031;-88
2024/01/24 04:56:14;;;;;;;30.60;5.75;;;10.80;90.10;;;;;;5114967;28;20142;-86
2024/01/24 04:58:42;;;;;;;19.85;5.45;;;10.70;90.00;;;;;;5116109;27;20032;-87
2024/01/24 05:01:08;;;;;;;26.25;5.53;;;10.80;89.70;;;;;;5104401;27;20060;-88
2024/01/24 05:03:34;;;;;;;20.27;5.05;;;10.70;89.40;;;;;;5112181;28;20063;-88
2024/01/24 05:06:00;;;;;;;25.80;5.20;;;10.80;89.30;;;;;;5115177;27;20035;-87
2024/01/24 05:08:25;;;;;;;24.63;5.97;;;11.20;89.00;;;;;;5102994;27;20052;-87
2024/01/24 05:10:51;;;;;;;30.00;6.45;;;10.70;88.50;;;;;;5117037;27;20036;-87
2024/01/24 05:13:18;;;;;;;21.92;5.40;;;10.70;88.30;;;;;;5102541;27;20035;-87
2024/01/24 05:15:43;;;;;;;34.83;6.68;;;10.60;88.10;;;;;;5115213;27;20505;-88
2024/01/24 05:18:09;;;;;;;29.02;7.18;;;10.60;87.70;;;;;;5116036;27;20078;-88
2024/01/24 05:20:37;;;;;;;30.88;6.35;;;10.90;87.80;;;;;;5095544;27;20028;-88
2024/01/24 05:23:03;;;;;;;29.95;5.28;;;10.60;87.40;;;;;;5114550;27;20141;-88
2024/01/24 05:25:30;;;;;;;34.65;6.53;;;10.60;87.20;;;;;;5101716;27;20039;-88
2024/01/24 05:27:56;;;;;;;21.75;6.18;;;10.60;86.70;;;;;;5113560;27;20554;-88
2024/01/24 05:30:21;;;;;;;29.33;6.25;;;10.60;86.70;;;;;;5107574;27;20125;-89
2024/01/24 05:32:47;;;;;;;28.02;6.03;;;10.50;86.40;;;;;;5113719;27;20112;-88
2024/01/24 05:35:12;;;;;;;26.40;5.47;;;10.50;86.50;;;;;;5113769;27;20054;-88
2024/01/24 05:37:38;;;;;;;38.13;6.63;;;10.60;86.60;;;;;;5113639;28;20085;-88
2024/01/24 05:40:04;;;;;;;31.25;5.50;;;10.40;86.40;;;;;;5100852;27;20039;-87
2024/01/24 05:42:30;;;;;;;32.47;7.55;;;10.40;86.30;;;;;;5114706;27;20118;-87
2024/01/24 05:44:55;;;;;;;30.65;6.78;;;11.00;86.40;;;;;;5113829;27;20071;-88
2024/01/24 05:47:21;;;;;;;32.65;6.50;;;10.40;86.10;;;;;;5114669;27;20101;-88
2024/01/24 05:49:47;;;;;;;30.20;6.50;;;10.30;85.90;;;;;;5113890;27;20039;-87
2024/01/24 05:52:13;;;;;;;28.83;7.20;;;10.30;86.00;;;;;;5099079;27;20032;-88
2024/01/24 05:54:40;;;;;;;33.05;6.65;;;10.20;85.90;;;;;;5103483;27;20118;-88
2024/01/24 05:57:06;;;;;;;31.00;6.70;;;10.20;86.00;;;;;;5128457;27;20483;-88
2024/01/24 05:59:32;;;;;;;32.33;7.15;;;10.20;85.90;;;;;;5112319;27;20058;-88
2024/01/24 06:01:59;;;;;;;24.15;6.20;;;10.20;86.00;;;;;;5113087;27;20080;-87
2024/01/24 06:04:24;;;;;;;35.78;7.75;;;10.10;86.00;;;;;;5112247;27;20071;-89
2024/01/24 06:06:50;;;;;;;34.47;7.15;;;10.10;85.90;;;;;;5125028;27;20427;-88
2024/01/24 06:09:20;;;;;;;34.80;8.07;;;10.10;85.60;;;;;;5121613;27;20118;-88
2024/01/24 06:11:48;;;;;;;33.22;7.50;;;10.10;85.10;;;;;;5117981;27;20513;-88
2024/01/24 06:14:13;;;;;;;30.92;6.90;;;10.10;85.00;;;;;;5126411;27;20047;-89
2024/01/24 06:16:39;;;;;;;35.78;6.80;;;10.10;84.80;;;;;;5121647;27;20430;-88
2024/01/24 06:19:05;;;;;;;34.20;7.72;;;10.10;84.50;;;;;;5125629;27;20077;-87
2024/01/24 06:21:30;;;;;;;36.60;7.53;;;10.10;84.30;;;;;;5116870;27;20091;-87
2024/01/24 06:23:56;;;;;;;37.58;8.50;;;10.10;83.60;;;;;;5108552;27;20109;-88
2024/01/24 06:26:21;;;;;;;30.38;7.00;;;10.00;83.00;;;;;;5105060;27;20494;-88
2024/01/24 06:28:47;;;;;;;32.25;6.43;;;10.00;82.70;;;;;;5122571;27;20049;-86
2024/01/24 06:31:14;;;;;;;37.13;8.63;;;10.10;82.90;;;;;;5120605;27;20039;-86
2024/01/24 06:33:40;;;;;;;31.38;7.05;;;10.00;82.40;;;;;;5106601;27;20094;-87
2024/01/24 06:36:07;;;;;;;33.78;9.02;;;10.10;82.00;;;;;;5115480;28;20059;-87
2024/01/24 06:38:32;;;;;;;34.03;8.02;;;10.00;81.40;;;;;;5130467;28;20044;-87
2024/01/24 06:40:58;;;;;;;29.05;6.72;;;10.00;80.80;;;;;;5144331;27;20099;-86
2024/01/24 06:43:23;;;;;;;37.75;7.85;;;10.10;80.90;;;;;;5129808;27;20106;-87
2024/01/24 06:45:49;;;;;;;34.65;8.02;;;10.10;80.90;;;;;;5114923;27;20039;-87
2024/01/24 06:48:15;;;;;;;33.10;6.70;;;10.10;81.00;;;;;;5124257;27;20035;-88
2024/01/24 06:50:41;;;;;;;35.30;8.25;;;10.10;80.70;;;;;;5106394;28;20039;-87
2024/01/24 06:53:10;;;;;;;38.55;9.07;;;10.10;80.80;;;;;;5103837;27;20049;-88
2024/01/24 06:55:36;;;;;;;38.72;8.93;;;10.10;80.80;;;;;;5116577;27;20039;-87
2024/01/24 06:58:02;;;;;;;38.35;7.55;;;10.10;81.10;;;;;;5116787;28;20043;-87
2024/01/24 07:00:29;;;;;;;34.80;7.88;;;10.00;81.40;;;;;;5118987;28;20039;-87
2024/01/24 07:02:55;;;;;;;32.65;7.75;;;10.00;81.70;;;;;;5105406;28;20035;-88
2024/01/24 07:05:21;;;;;;;34.13;7.63;;;10.10;82.10;;;;;;5116678;28;20520;-88
2024/01/24 07:07:47;;;;;;;33.35;8.57;;;10.00;82.40;;;;;;5103793;28;20039;-88
2024/01/24 07:10:13;;;;;;;37.83;8.13;;;10.10;82.70;;;;;;5121010;28;20363;-87
2024/01/24 07:12:44;;;;;;;41.28;8.73;;;10.10;83.00;;;;;;5124649;28;20046;-87
2024/01/24 07:15:16;;;;;;;42.17;8.50;;;10.00;83.00;;;;;;5116268;28;20087;-86
2024/01/24 07:17:43;;;;;;;42.55;8.60;;;10.00;83.10;;;;;;5113332;28;20103;-86
2024/01/24 07:20:09;;;;;;;27.45;7.32;;;10.00;83.30;;;;;;5103572;28;20032;-86
2024/01/24 07:22:34;;;;;;;33.63;7.47;;;10.00;83.40;;;;;;5121108;27;20077;-88
2024/01/24 07:25:01;;;;;;;36.53;8.38;;;10.00;83.50;;;;;;5121114;27;20562;-88
2024/01/24 07:27:26;;;;;;;39.00;8.63;;;10.90;84.20;;;;;;5124848;27;20043;-87
2024/01/24 07:29:53;;;;;;;42.67;8.02;;;10.00;83.80;;;;;;5108093;27;20054;-88
2024/01/24 07:32:19;;;;;;;37.13;8.30;;;10.60;84.20;;;;;;5123556;27;20035;-88
2024/01/24 07:34:44;;;;;;;41.42;7.82;;;10.00;83.80;;;;;;5119993;27;20080;-87
2024/01/24 07:37:10;;;;;;;37.90;8.77;;;10.00;83.90;;;;;;5123741;27;20118;-88
2024/01/24 07:39:35;;;;;;;33.13;8.32;;;10.00;83.90;;;;;;5119847;27;20039;-88
2024/01/24 07:42:01;;;;;;;39.60;8.27;;;10.00;84.00;;;;;;5117317;28;20054;-88
2024/01/24 07:44:27;;;;;;;34.15;7.70;;;10.00;84.10;;;;;;5125148;27;20035;-87
2024/01/24 07:46:53;;;;;;;35.20;8.98;;;9.90;83.80;;;;;;5124629;27;20121;-87
2024/01/24 07:49:18;;;;;;;35.47;10.07;;;10.50;84.10;;;;;;5109803;27;20387;-80
2024/01/24 07:51:46;;;;;;;37.22;7.10;;;9.90;84.10;;;;;;5128488;27;20038;-80
2024/01/24 07:54:12;;;;;;;38.60;9.10;;;9.90;83.60;;;;;;5124290;27;20031;-80
2024/01/24 07:56:40;;;;;;;34.38;7.72;;;9.90;83.60;;;;;;5121350;27;20053;-81
2024/01/24 07:59:06;;;;;;;40.28;9.23;;;9.90;83.50;;;;;;5127955;27;20387;-81
2024/01/24 08:01:32;;;;;;;31.40;8.10;;;9.90;83.30;;;;;;5129493;27;20035;-82
2024/01/24 08:03:58;;;;;;;36.97;7.65;;;9.90;83.20;;;;;;5112060;27;20035;-81
2024/01/24 08:06:24;;;;;;;33.67;6.82;;;9.90;83.10;;;;;;5115837;28;20059;-81
2024/01/24 08:08:50;;;;;;;35.85;7.78;;;9.90;83.10;;;;;;5132152;27;20046;-82
2024/01/24 08:11:16;;;;;;;31.98;8.93;;;9.90;83.10;;;;;;5113005;27;20081;-82
2024/01/24 08:13:44;;;;;;;35.83;7.85;;;9.90;82.70;;;;;;5129074;27;20027;-82
2024/01/24 08:16:10;;;;;;;39.05;8.05;;;9.90;82.10;;;;;;5147946;27;20066;-81
2024/01/24 08:18:35;;;;;;;27.17;7.93;;;9.80;82.10;;;;;;5130154;27;20044;-81
2024/01/24 08:21:01;;;;;;;35.40;10.02;;;9.90;82.20;;;;;;5131782;27;20047;-81
2024/01/24 08:23:27;;;;;;;29.60;7.97;;;9.90;82.30;;;;;;5094183;27;20043;-81
2024/01/24 08:25:52;;;;;;;38.30;8.88;;;9.90;82.60;;;;;;5129095;27;20115;-81
2024/01/24 08:28:18;;;;;;;38.33;7.63;;;9.80;82.60;;;;;;5109521;27;20061;-81
2024/01/24 08:30:43;;;;;;;44.63;8.50;;;9.90;82.70;;;;;;5112879;27;20608;-81
2024/01/24 08:33:09;;;;;;;39.25;9.30;;;9.90;82.90;;;;;;5127544;27;20045;-82
2024/01/24 08:35:36;;;;;;;42.50;9.00;;;9.80;82.90;;;;;;5111626;27;20035;-81
2024/01/24 08:38:02;;;;;;;42.38;8.57;;;9.90;83.00;;;;;;5121724;27;20039;-82
2024/01/24 08:40:28;;;;;;;38.83;8.80;;;9.80;83.00;;;;;;5128712;27;20035;-82
2024/01/24 08:42:54;;;;;;;35.90;10.48;;;9.90;83.20;;;;;;5126552;27;20089;-82
2024/01/24 08:45:20;;;;;;;41.35;9.25;;;9.80;83.10;;;;;;5116495;27;20040;-81
2024/01/24 08:47:46;;;;;;;40.85;9.02;;;9.80;83.00;;;;;;5115848;27;20110;-82
2024/01/24 08:50:11;;;;;;;36.78;9.50;;;9.90;83.10;;;;;;5147709;27;20056;-82
2024/01/24 08:52:37;;;;;;;33.67;9.50;;;9.80;83.00;;;;;;5127935;27;20111;-82
2024/01/24 08:55:03;;;;;;;40.67;8.48;;;9.90;82.90;;;;;;5125465;27;20046;-81
2024/01/24 08:57:28;;;;;;;38.38;9.90;;;9.80;82.80;;;;;;5125811;27;20039;-82
2024/01/24 08:59:54;;;;;;;42.15;9.65;;;9.80;82.70;;;;;;5144556;27;20412;-89
2024/01/24 09:02:20;;;;;;;33.47;8.32;;;9.80;82.30;;;;;;5134311;27;20035;-88
2024/01/24 09:04:46;;;;;;;44.42;10.18;;;9.90;82.30;;;;;;5105153;28;20032;-87
2024/01/24 09:07:16;;;;;;;38.00;8.32;;;9.90;82.40;;;;;;5126537;27;20039;-87
2024/01/24 09:09:42;;;;;;;44.20;9.75;;;9.90;82.10;;;;;;5117675;27;20046;-88
2024/01/24 09:12:07;;;;;;;39.40;10.20;;;9.90;82.10;;;;;;5122163;27;20031;-89
2024/01/24 09:14:33;;;;;;;44.05;8.68;;;10.20;82.30;;;;;;5122598;27;20126;-89
2024/01/24 09:16:59;;;;;;;44.10;7.97;;;10.60;82.40;;;;;;5122966;27;20093;-87
2024/01/24 09:19:26;;;;;;;37.20;7.80;;;10.60;82.20;;;;;;5108344;27;20061;-87
2024/01/24 09:21:52;;;;;;;35.10;7.78;;;10.00;81.40;;;;;;5122829;27;20035;-89
2024/01/24 09:24:17;;;;;;;34.80;8.40;;;10.00;81.40;;;;;;5104931;27;20050;-87
2024/01/24 09:26:43;;;;;;;44.85;9.60;;;10.00;81.50;;;;;;5104556;27;20067;-89
2024/01/24 09:29:12;;;;;;;39.33;9.10;;;10.30;81.60;;;;;;5109038;27;20035;-87
2024/01/24 09:31:43;;;;;;;34.03;8.25;;;10.40;81.30;;;;;;5123924;27;20486;-87
2024/01/24 09:34:11;;;;;;;38.60;8.20;;;10.60;81.20;;;;;;5107748;27;20118;-89
2024/01/24 09:36:37;;;;;;;36.42;8.48;;;10.20;80.90;;;;;;5108141;27;20062;-89
2024/01/24 09:39:03;;;;;;;43.80;7.93;;;10.10;80.70;;;;;;5122567;27;20044;-89
2024/01/24 09:41:37;;;;;;;31.42;8.20;;;10.10;80.50;;;;;;5107606;27;20046;-88
2024/01/24 09:44:04;;;;;;;33.80;8.15;;;10.20;80.50;;;;;;5119608;27;20059;-86
2024/01/24 09:46:33;;;;;;;33.55;8.20;;;10.20;80.40;;;;;;5125412;27;20034;-87
2024/01/24 09:49:01;;;;;;;37.42;8.35;;;10.20;80.40;;;;;;5121903;27;20041;-89
2024/01/24 09:51:28;;;;;;;30.67;8.10;;;10.20;80.10;;;;;;5121637;27;20043;-89
2024/01/24 09:53:56;;;;;;;34.17;8.50;;;10.20;80.20;;;;;;5119861;27;20063;-88
2024/01/24 09:56:23;;;;;;;37.80;8.15;;;10.30;80.10;;;;;;5123018;27;20490;-88
2024/01/24 09:58:49;;;;;;;32.92;7.18;;;10.80;80.40;;;;;;5122863;27;20425;-89
2024/01/24 10:01:16;;;;;;;35.10;8.07;;;10.30;80.10;;;;;;5105184;27;20035;-88
2024/01/24 10:03:43;;;;;;;31.55;7.45;;;10.70;80.20;;;;;;5122370;27;20063;-88
2024/01/24 10:06:12;;;;;;;38.70;8.32;;;10.30;79.70;;;;;;5110917;27;20097;-81
2024/01/24 10:08:38;;;;;;;33.00;8.18;;;10.90;80.30;;;;;;5121581;27;20049;-81
2024/01/24 10:11:05;;;;;;;35.72;7.95;;;10.40;79.90;;;;;;5124297;27;20106;-81
2024/01/24 10:13:31;;;;;;;31.88;7.70;;;10.40;79.80;;;;;;5129068;27;20038;-80
2024/01/24 10:15:59;;;;;;;31.08;7.47;;;10.40;79.70;;;;;;5128244;27;20402;-80
2024/01/24 10:18:25;;;;;;;29.95;8.25;;;10.40;79.60;;;;;;5122380;27;20054;-81
2024/01/24 10:20:50;;;;;;;32.80;7.18;;;10.40;79.30;;;;;;5124272;27;20086;-80
2024/01/24 10:23:16;;;;;;;34.22;7.65;;;10.50;79.10;;;;;;5106386;28;20035;-81
2024/01/24 10:25:42;;;;;;;32.95;8.02;;;10.90;79.30;;;;;;5137206;27;20048;-81
2024/01/24 10:28:14;;;;;;;29.50;6.50;;;10.50;79.20;;;;;;5134798;28;20035;-81
2024/01/24 10:30:45;;;;;;;32.53;8.63;;;10.50;79.00;;;;;;5122697;27;20032;-81
2024/01/24 10:33:12;;;;;;;28.20;8.50;;;10.50;78.80;;;;;;5123292;27;20048;-81
2024/01/24 10:35:38;;;;;;;35.47;8.02;;;10.50;78.90;;;;;;5122809;28;20048;-81
2024/01/24 10:38:05;;;;;;;29.50;7.90;;;10.50;78.60;;;;;;5127353;27;20417;-81
2024/01/24 10:40:31;;;;;;;28.77;6.75;;;10.60;78.40;;;;;;5127847;27;20096;-81
2024/01/24 10:43:08;;;;;;;25.45;6.32;;;10.60;78.20;;;;;;5110410;27;20069;-80
2024/01/24 10:45:34;;;;;;;22.65;5.82;;;10.60;77.10;;;;;;5119682;27;20092;-80
2024/01/24 10:48:01;;;;;;;31.42;7.25;;;10.60;77.60;;;;;;5126658;27;20035;-80
2024/01/24 10:50:27;;;;;;;28.15;6.97;;;10.60;76.70;;;;;;5124140;27;20046;-80
2024/01/24 10:52:53;;;;;;;30.05;7.10;;;10.60;76.80;;;;;;5112103;27;20385;-80
2024/01/24 10:55:20;;;;;;;26.10;6.55;;;10.60;76.70;;;;;;5127734;27;20039;-80
2024/01/24 10:57:48;;;;;;;23.90;5.20;;;10.70;76.50;;;;;;5120530;28;20040;-80
2024/01/24 11:00:17;;;;;;;25.65;6.05;;;10.70;76.00;;;;;;5133585;28;20046;-80
2024/01/24 11:02:43;;;;;;;25.48;5.22;;;10.70;75.30;;;;;;5143031;28;20032;-81
2024/01/24 11:05:17;;;;;;;20.92;5.53;;;10.70;75.30;;;;;;5128881;28;20032;-80
2024/01/24 11:08:07;;;;;;;23.50;5.43;;;10.70;74.90;;;;;;5128145;28;20087;-80
2024/01/24 11:10:43;;;;;;;21.25;5.40;;;10.80;74.40;;;;;;5139516;27;20036;-80
2024/01/24 11:13:12;;;;;;;28.25;5.95;;;10.80;74.60;;;;;;5125739;28;20032;-80
2024/01/24 11:15:40;;;;;;;18.88;4.43;;;10.80;74.40;;;;;;5128860;28;20044;-80
2024/01/24 11:18:30;;;;;;;28.65;6.38;;;11.00;74.60;;;;;;5108888;28;20040;-80
2024/01/24 11:20:57;;;;;;;26.42;5.68;;;10.80;73.20;;;;;;5128134;28;20091;-80
2024/01/24 11:23:44;;;;;;;22.80;4.95;;;10.80;73.90;;;;;;5110888;28;20579;-81
2024/01/24 11:26:31;;;;;;;22.38;5.80;;;10.80;74.10;;;;;;5119121;28;20035;-81
2024/01/24 11:29:09;;;;;;;26.42;5.40;;;10.70;74.40;;;;;;5101579;28;20494;-81
2024/01/24 11:31:39;;;;;;;18.83;6.32;;;10.80;73.40;;;;;;5123536;28;20035;-81
2024/01/24 11:34:09;;;;;;;28.35;6.32;;;10.80;74.00;;;;;;5115851;28;20067;-87
2024/01/24 11:36:50;;;;;;;23.85;5.47;;;10.80;74.40;;;;;;5121101;28;20051;-86
2024/01/24 11:39:29;;;;;;;20.90;5.25;;;11.00;74.00;;;;;;5122128;28;20058;-87
2024/01/24 11:42:14;;;;;;;28.25;5.70;;;10.80;74.10;;;;;;5120728;27;20067;-86
2024/01/24 11:44:41;;;;;;;22.13;5.30;;;10.90;74.50;;;;;;5119320;28;20035;-87
2024/01/24 11:47:07;;;;;;;25.33;5.38;;;10.80;74.60;;;;;;5106628;28;20108;-88
2024/01/24 11:49:33;;;;;;;26.75;6.63;;;10.80;74.30;;;;;;5120387;28;20042;-88
2024/01/24 11:52:02;;;;;;;21.40;4.70;;;10.80;73.70;;;;;;5116428;28;20494;-88
2024/01/24 11:54:28;;;;;;;26.55;5.05;;;10.80;73.80;;;;;;5120082;27;20039;-88
2024/01/24 11:56:54;;;;;;;28.02;5.75;;;11.00;74.30;;;;;;5119257;28;20126;-88
2024/01/24 11:59:22;;;;;;;21.20;5.30;;;10.80;73.80;;;;;;5117892;27;20040;-88
2024/01/24 12:01:48;;;;;;;29.45;5.85;;;11.20;74.00;;;;;;5105159;28;20031;-87
2024/01/24 12:04:13;;;;;;;21.63;5.82;;;10.80;74.00;;;;;;5111844;28;20100;-87
2024/01/24 12:06:41;;;;;;;24.35;5.75;;;11.60;74.70;;;;;;5106666;28;20127;-89
2024/01/24 12:09:09;;;;;;;25.00;6.18;;;10.80;74.00;;;;;;5106749;28;20038;-88
2024/01/24 12:11:34;;;;;;;29.63;6.53;;;10.80;74.00;;;;;;5115181;28;20497;-88
2024/01/24 12:14:01;;;;;;;24.13;5.20;;;10.90;73.60;;;;;;5122403;27;20049;-88
2024/01/24 12:16:28;;;;;;;25.35;4.70;;;10.80;73.60;;;;;;5108905;27;20092;-89
2024/01/24 12:18:54;;;;;;;25.33;5.15;;;10.80;73.70;;;;;;5108729;27;20035;-89
2024/01/24 12:21:20;;;;;;;23.75;5.95;;;10.80;74.60;;;;;;5107019;27;20035;-88
2024/01/24 12:23:47;;;;;;;28.73;5.82;;;11.30;74.50;;;;;;5121819;27;20051;-88
2024/01/24 12:26:14;;;;;;;26.40;5.43;;;11.50;74.40;;;;;;5127497;27;20035;-88
2024/01/24 12:28:40;;;;;;;22.63;6.57;;;10.80;74.00;;;;;;5110505;27;20043;-87
2024/01/24 12:31:05;;;;;;;22.92;5.05;;;11.00;74.50;;;;;;5125270;27;22694;-88
2024/01/24 12:33:32;;;;;;;24.92;5.45;;;10.70;74.60;;;;;;5132610;27;20414;-88
2024/01/24 12:36:04;;;;;;;24.60;5.22;;;10.80;74.80;;;;;;5113149;27;20043;-89
2024/01/24 12:38:30;;;;;;;24.38;5.40;;;10.80;74.70;;;;;;5108183;28;20628;-89